Time;durP1;ratioP1;P1;durP2;ratioP2;P2;SDS_P1;SDS_P2;PMS_P1;PMS_P2;Temp;Humidity;BMP_temperature;BMP_pressure;BME280_temperature;BME280_humidity;BME280_pressure;Samples;Min_cycle;Max_cycle;Signal;HPM_P1;HPM_P2
2023/09/16 00:02:48;;;;;;;7.05;4.88;;;;;;;16.37;72.81;101704.56;7400482;19;19990;-66
2023/09/16 00:05:17;;;;;;;6.72;5.05;;;;;;;16.32;72.97;101704.31;7399202;19;19926;-66
2023/09/16 00:07:46;;;;;;;7.20;5.28;;;;;;;16.27;73.17;101699.44;7398035;19;19926;-66
2023/09/16 00:10:14;;;;;;;8.30;5.38;;;;;;;16.21;73.37;101689.38;7398467;19;19940;-66
2023/09/16 00:12:43;;;;;;;7.13;5.63;;;;;;;16.17;73.36;101693.50;7400866;19;19947;-66
2023/09/16 00:15:12;;;;;;;7.80;4.55;;;;;;;16.16;73.74;101697.25;7400572;19;19922;-66
2023/09/16 00:17:41;;;;;;;11.25;5.68;;;;;;;16.13;73.72;101696.81;7401188;19;19946;-66
2023/09/16 00:20:15;;;;;;;8.18;5.53;;;;;;;16.05;74.17;101695.03;7401024;19;19922;-66
2023/09/16 00:22:44;;;;;;;6.90;5.38;;;;;;;15.98;73.73;101691.41;7401596;19;19926;-66
2023/09/16 00:25:13;;;;;;;6.40;4.90;;;;;;;15.93;73.94;101687.56;7401889;19;19922;-66
2023/09/16 00:27:42;;;;;;;8.52;5.60;;;;;;;15.88;73.87;101682.72;7401554;19;19926;-66
2023/09/16 00:30:12;;;;;;;6.47;5.18;;;;;;;15.85;74.54;101681.22;7401712;19;19915;-66
2023/09/16 00:32:40;;;;;;;9.77;5.50;;;;;;;15.80;74.67;101680.13;7397954;19;19966;-65
2023/09/16 00:35:13;;;;;;;7.55;5.65;;;;;;;15.77;74.63;101677.78;7401115;19;19923;-66
2023/09/16 00:37:43;;;;;;;8.80;5.32;;;;;;;15.75;74.98;101675.25;7395546;19;20727;-66
2023/09/16 00:40:13;;;;;;;8.55;5.93;;;;;;;15.73;74.70;101673.78;7401255;19;20279;-66
2023/09/16 00:42:42;;;;;;;9.20;5.80;;;;;;;15.71;74.82;101679.38;7401194;19;19922;-66
2023/09/16 00:45:14;;;;;;;7.90;5.25;;;;;;;15.68;74.83;101676.22;7401756;19;19926;-66
2023/09/16 00:48:03;;;;;;;7.72;5.40;;;;;;;15.65;75.03;101673.88;7399002;19;19930;-65
2023/09/16 00:50:35;;;;;;;7.85;5.70;;;;;;;15.64;74.91;101669.47;7401580;19;19939;-66
2023/09/16 00:53:04;;;;;;;7.95;5.57;;;;;;;15.62;75.28;101680.53;7399525;19;22569;-66
2023/09/16 00:55:34;;;;;;;9.52;5.68;;;;;;;15.61;75.23;101680.72;7399938;19;19963;-65
2023/09/16 00:58:03;;;;;;;10.27;5.60;;;;;;;15.61;75.10;101669.88;7399040;19;20444;-65
2023/09/16 01:00:32;;;;;;;10.32;5.57;;;;;;;15.61;75.41;101675.31;7400131;19;19922;-66
2023/09/16 01:03:01;;;;;;;8.00;5.32;;;;;;;15.56;75.66;101666.88;7398958;19;20274;-65
2023/09/16 01:05:30;;;;;;;9.82;6.13;;;;;;;15.52;75.54;101660.16;7400076;19;19923;-66
2023/09/16 01:08:03;;;;;;;7.50;6.07;;;;;;;15.46;75.79;101661.69;7397781;19;20260;-65
2023/09/16 01:10:32;;;;;;;9.27;5.03;;;;;;;15.39;75.79;101661.63;7399478;19;19926;-66
2023/09/16 01:13:01;;;;;;;9.38;5.95;;;;;;;15.36;75.89;101651.13;7400121;19;20021;-66
2023/09/16 01:15:34;;;;;;;8.50;5.78;;;;;;;15.34;75.63;101650.50;7400393;19;20260;-66
2023/09/16 01:18:09;;;;;;;8.82;5.75;;;;;;;15.31;76.22;101648.16;7401163;19;19925;-66
2023/09/16 01:20:40;;;;;;;8.73;6.15;;;;;;;15.29;75.78;101652.09;7397196;19;20321;-66
2023/09/16 01:23:11;;;;;;;9.30;6.30;;;;;;;15.22;76.28;101643.88;7399681;19;20202;-66
2023/09/16 01:25:42;;;;;;;8.32;5.78;;;;;;;15.19;76.30;101643.38;7399932;19;19923;-66
2023/09/16 01:28:31;;;;;;;8.80;6.22;;;;;;;15.15;76.79;101645.63;7397916;19;19914;-66
2023/09/16 01:31:02;;;;;;;8.63;6.30;;;;;;;15.13;76.76;101639.56;7400186;19;20599;-66
2023/09/16 01:33:37;;;;;;;9.23;5.88;;;;;;;15.10;76.46;101648.06;7399482;19;19962;-65
2023/09/16 01:36:08;;;;;;;9.70;6.00;;;;;;;15.06;76.74;101641.31;7398063;19;19919;-66
2023/09/16 01:38:39;;;;;;;9.45;6.25;;;;;;;15.06;76.67;101637.78;7397828;19;19922;-66
2023/09/16 01:41:31;;;;;;;11.27;8.00;;;;;;;15.04;76.87;101637.97;7397984;19;19923;-66
2023/09/16 01:44:00;;;;;;;9.98;6.57;;;;;;;15.07;76.56;101640.31;7399498;19;19988;-66
2023/09/16 01:46:29;;;;;;;10.43;6.82;;;;;;;15.02;77.21;101647.31;7399073;19;19937;-66
2023/09/16 01:49:17;;;;;;;9.75;6.07;;;;;;;15.02;76.74;101644.59;7397888;19;19978;-65
2023/09/16 01:51:46;;;;;;;10.95;6.95;;;;;;;15.03;77.25;101643.56;7399848;19;19926;-66
2023/09/16 01:54:15;;;;;;;9.60;6.88;;;;;;;15.03;77.05;101639.00;7399050;19;19922;-65
2023/09/16 01:56:48;;;;;;;9.13;6.30;;;;;;;15.04;77.16;101635.25;7398005;19;19920;-66
2023/09/16 01:59:16;;;;;;;8.07;6.85;;;;;;;15.05;77.06;101638.81;7397946;19;20512;-66
2023/09/16 02:01:46;;;;;;;10.05;6.80;;;;;;;15.03;77.38;101621.88;7399274;19;19990;-66
2023/09/16 02:04:15;;;;;;;9.10;6.05;;;;;;;15.03;77.19;101632.72;7395974;19;19925;-65
2023/09/16 02:06:46;;;;;;;8.98;6.45;;;;;;;15.03;77.28;101639.00;7398062;19;19943;-66
2023/09/16 02:09:15;;;;;;;8.40;7.00;;;;;;;15.02;77.11;101637.31;7397774;19;20372;-66
2023/09/16 02:11:47;;;;;;;9.43;6.57;;;;;;;15.01;77.40;101637.50;7398615;19;19957;-66
2023/09/16 02:14:18;;;;;;;8.88;6.90;;;;;;;14.92;77.74;101637.59;7399469;19;20365;-66
2023/09/16 02:16:47;;;;;;;9.65;7.10;;;;;;;14.87;78.21;101644.63;7399224;19;19923;-66
2023/09/16 02:19:16;;;;;;;11.07;6.68;;;;;;;14.85;77.86;101635.81;7398882;19;19922;-66
2023/09/16 02:21:44;;;;;;;8.95;6.90;;;;;;;14.87;77.77;101631.91;7398856;19;19982;-66
2023/09/16 02:24:13;;;;;;;10.40;7.22;;;;;;;14.91;78.06;101635.91;7398463;19;19915;-65
2023/09/16 02:26:42;;;;;;;11.23;7.50;;;;;;;14.92;78.24;101639.47;7399196;19;19918;-66
2023/09/16 02:29:13;;;;;;;12.38;7.45;;;;;;;14.94;78.30;101642.81;7398662;19;19922;-66
2023/09/16 02:31:41;;;;;;;10.27;6.63;;;;;;;14.98;77.86;101636.00;7398865;19;19922;-66
2023/09/16 02:34:10;;;;;;;12.00;8.40;;;;;;;14.99;77.97;101640.41;7398088;19;19943;-65
2023/09/16 02:36:39;;;;;;;12.20;7.47;;;;;;;14.94;78.46;101640.13;7394726;19;19919;-66
2023/09/16 02:39:07;;;;;;;9.85;8.20;;;;;;;14.94;78.09;101630.09;7395496;19;20335;-65
2023/09/16 02:41:56;;;;;;;9.38;7.10;;;;;;;14.91;78.22;101635.06;7397649;19;20789;-66
2023/09/16 02:44:47;;;;;;;11.15;7.28;;;;;;;14.93;78.25;101635.72;7396058;19;19961;-69
2023/09/16 02:47:16;;;;;;;8.73;7.00;;;;;;;14.93;78.57;101641.13;7398347;19;19939;-66
2023/09/16 02:50:05;;;;;;;10.65;7.13;;;;;;;14.90;78.25;101638.81;7395671;19;19956;-66
2023/09/16 02:52:34;;;;;;;12.38;7.45;;;;;;;14.86;78.90;101642.91;7397054;19;19926;-66
2023/09/16 02:55:02;;;;;;;9.73;7.10;;;;;;;14.80;78.73;101632.81;7396884;19;19922;-66
2023/09/16 02:57:32;;;;;;;9.82;6.90;;;;;;;14.78;79.09;101635.72;7396194;19;19926;-66
2023/09/16 03:00:03;;;;;;;10.30;7.45;;;;;;;14.80;79.00;101632.81;7397761;19;19918;-66
2023/09/16 03:02:32;;;;;;;11.30;7.97;;;;;;;14.81;79.21;101631.78;7396408;19;19931;-66
2023/09/16 03:05:01;;;;;;;8.80;7.25;;;;;;;14.82;78.55;101628.03;7398134;19;19918;-66
2023/09/16 03:07:30;;;;;;;11.48;8.40;;;;;;;14.81;79.15;101629.06;7394871;19;19923;-65
2023/09/16 03:09:58;;;;;;;13.63;8.95;;;;;;;14.78;79.07;101624.88;7396874;19;19935;-66
2023/09/16 03:12:27;;;;;;;10.50;7.50;;;;;;;14.77;79.50;101614.19;7396305;19;19926;-66
2023/09/16 03:14:55;;;;;;;12.93;7.85;;;;;;;14.74;79.60;101612.72;7396919;19;19927;-67
2023/09/16 03:17:27;;;;;;;11.25;8.48;;;;;;;14.72;79.33;101614.75;7402508;19;19922;-66
2023/09/16 03:19:55;;;;;;;12.88;7.88;;;;;;;14.72;79.44;101624.75;7402843;19;20547;-66
2023/09/16 03:22:24;;;;;;;13.77;8.10;;;;;;;14.70;79.60;101629.53;7403352;19;19918;-66
2023/09/16 03:24:53;;;;;;;9.48;7.22;;;;;;;14.70;79.51;101627.66;7402856;19;19925;-65
2023/09/16 03:27:22;;;;;;;10.88;7.90;;;;;;;14.70;79.74;101630.38;7402188;19;19937;-65
2023/09/16 03:29:50;;;;;;;10.30;8.18;;;;;;;14.70;80.13;101632.25;7400757;19;20360;-66
2023/09/16 03:32:41;;;;;;;12.80;8.02;;;;;;;14.69;79.67;101619.72;7400938;19;19927;-66
2023/09/16 03:35:10;;;;;;;10.88;7.45;;;;;;;14.68;79.46;101627.00;7401147;19;19929;-65
2023/09/16 03:37:39;;;;;;;9.45;7.75;;;;;;;14.68;79.51;101624.28;7396533;19;19923;-65
2023/09/16 03:40:09;;;;;;;9.77;7.22;;;;;;;14.65;80.42;101616.53;7401745;19;19922;-65
2023/09/16 03:42:38;;;;;;;10.15;7.35;;;;;;;14.63;79.82;101624.00;7401938;19;19922;-65
2023/09/16 03:45:07;;;;;;;12.93;8.15;;;;;;;14.66;80.11;101615.50;7402342;19;19922;-66
2023/09/16 03:47:36;;;;;;;12.77;9.50;;;;;;;14.63;80.31;101617.72;7402705;19;19950;-65
2023/09/16 03:50:09;;;;;;;10.95;8.48;;;;;;;14.60;80.53;101613.53;7402537;19;19918;-66
2023/09/16 03:52:37;;;;;;;10.00;7.63;;;;;;;14.64;80.00;101616.69;7402187;19;19926;-65
2023/09/16 03:55:06;;;;;;;12.60;8.80;;;;;;;14.68;80.02;101609.88;7402261;19;19918;-66
2023/09/16 03:57:36;;;;;;;13.73;8.88;;;;;;;14.69;80.07;101606.16;7401953;19;19950;-66
2023/09/16 04:00:24;;;;;;;11.52;8.23;;;;;;;14.68;80.57;101610.72;7399111;19;19919;-67
2023/09/16 04:02:53;;;;;;;15.45;9.35;;;;;;;14.67;80.01;101600.09;7401058;19;19947;-65
2023/09/16 04:05:24;;;;;;;12.40;9.30;;;;;;;14.63;80.27;101604.16;7401785;19;19993;-65
2023/09/16 04:07:53;;;;;;;11.20;8.35;;;;;;;14.57;80.30;101602.22;7398923;19;19955;-65
2023/09/16 04:10:22;;;;;;;10.57;8.05;;;;;;;14.52;80.57;101608.19;7401791;19;19933;-65
2023/09/16 04:12:50;;;;;;;12.52;8.25;;;;;;;14.49;80.50;101604.00;7402172;19;19930;-66
2023/09/16 04:15:19;;;;;;;11.32;8.15;;;;;;;14.50;80.44;101605.66;7400894;19;19922;-65
2023/09/16 04:17:49;;;;;;;10.57;7.75;;;;;;;14.50;80.22;101605.66;7401675;19;19930;-65
2023/09/16 04:20:19;;;;;;;9.45;7.97;;;;;;;14.49;80.49;101611.28;7399901;19;19926;-68
2023/09/16 04:22:50;;;;;;;11.55;8.57;;;;;;;14.44;80.65;101606.41;7399472;19;20126;-66
2023/09/16 04:25:19;;;;;;;12.65;9.20;;;;;;;14.40;81.06;101604.25;7401227;19;19945;-66
2023/09/16 04:28:08;;;;;;;11.68;8.75;;;;;;;14.38;80.83;101612.56;7398925;19;19982;-66
2023/09/16 04:30:48;;;;;;;12.85;9.32;;;;;;;14.34;81.29;101607.66;7401980;19;19923;-66
2023/09/16 04:33:17;;;;;;;13.35;8.43;;;;;;;14.30;81.59;101611.75;7401079;19;19953;-66
2023/09/16 04:35:47;;;;;;;10.73;8.23;;;;;;;14.28;81.28;101614.63;7399538;19;19926;-66
2023/09/16 04:38:19;;;;;;;13.77;8.90;;;;;;;14.23;81.34;101605.38;7400280;19;19981;-65
2023/09/16 04:40:49;;;;;;;12.85;9.93;;;;;;;14.21;81.38;101607.44;7400485;19;19926;-66
2023/09/16 04:43:38;;;;;;;12.63;8.57;;;;;;;14.18;81.60;101597.81;7399014;19;19923;-65
2023/09/16 04:46:29;;;;;;;12.13;8.95;;;;;;;14.14;81.47;101596.50;7399544;19;20044;-65
2023/09/16 04:48:58;;;;;;;10.82;7.90;;;;;;;14.15;81.32;101603.56;7401013;19;19955;-65
2023/09/16 04:51:26;;;;;;;12.35;8.40;;;;;;;14.13;81.77;101596.66;7401294;19;19933;-65
2023/09/16 04:53:58;;;;;;;10.85;8.38;;;;;;;14.12;81.62;101595.81;7400738;19;19923;-66
2023/09/16 04:56:26;;;;;;;12.70;9.65;;;;;;;14.10;82.10;101592.47;7400852;19;20009;-65
2023/09/16 04:58:56;;;;;;;12.70;8.57;;;;;;;14.09;81.55;101601.59;7399919;19;19926;-66
2023/09/16 05:01:26;;;;;;;11.00;8.32;;;;;;;14.07;81.84;101604.50;7400607;19;20257;-66
2023/09/16 05:03:54;;;;;;;11.05;7.75;;;;;;;14.06;81.80;101605.50;7400043;19;19947;-66
2023/09/16 05:06:23;;;;;;;14.23;9.13;;;;;;;14.03;82.09;101605.88;7397029;19;20288;-66
2023/09/16 05:08:53;;;;;;;12.88;8.73;;;;;;;14.01;81.85;101610.66;7399569;19;19914;-66
2023/09/16 05:11:24;;;;;;;12.80;8.98;;;;;;;13.99;81.83;101604.56;7400446;19;20290;-66
2023/09/16 05:13:52;;;;;;;11.07;8.43;;;;;;;13.97;81.97;101606.63;7400486;19;19940;-66
2023/09/16 05:16:21;;;;;;;11.43;7.63;;;;;;;13.96;82.20;101601.38;7401714;19;19955;-66
2023/09/16 05:18:50;;;;;;;12.32;8.55;;;;;;;13.94;82.06;101603.41;7399824;19;19919;-65
2023/09/16 05:21:19;;;;;;;13.48;9.00;;;;;;;13.94;82.03;101598.84;7400539;19;20376;-66
2023/09/16 05:23:47;;;;;;;12.50;9.07;;;;;;;13.94;82.12;101608.81;7400054;19;20391;-66
2023/09/16 05:26:16;;;;;;;13.57;9.35;;;;;;;13.92;82.36;101609.03;7398855;19;19931;-66
2023/09/16 05:28:48;;;;;;;13.23;8.57;;;;;;;13.91;82.37;101607.34;7399302;19;19922;-66
2023/09/16 05:31:16;;;;;;;11.45;7.97;;;;;;;13.93;82.16;101615.28;7399088;19;19919;-66
2023/09/16 05:33:45;;;;;;;12.05;8.35;;;;;;;13.94;82.19;101612.38;7399864;19;19969;-65
2023/09/16 05:36:13;;;;;;;10.82;8.73;;;;;;;13.96;82.26;101610.34;7397479;19;20325;-65
2023/09/16 05:38:42;;;;;;;15.70;9.35;;;;;;;13.98;82.32;101607.44;7396640;19;19955;-67
2023/09/16 05:41:11;;;;;;;13.73;9.65;;;;;;;13.99;82.25;101609.13;7398715;19;20326;-65
2023/09/16 05:43:39;;;;;;;12.15;8.65;;;;;;;14.00;82.38;101605.41;7399452;19;20469;-66
2023/09/16 05:46:10;;;;;;;13.32;8.15;;;;;;;14.02;82.14;101609.59;7399313;19;19919;-66
2023/09/16 05:48:41;;;;;;;13.00;8.57;;;;;;;14.04;82.24;101610.28;7399361;19;19927;-66
2023/09/16 05:51:10;;;;;;;14.68;9.05;;;;;;;14.06;82.14;101608.22;7399145;19;19921;-66
2023/09/16 05:53:58;;;;;;;13.48;9.02;;;;;;;14.06;82.03;101607.41;7396997;19;19970;-66
2023/09/16 05:56:27;;;;;;;9.88;8.00;;;;;;;14.08;82.07;101608.88;7399757;19;19948;-66
2023/09/16 05:58:57;;;;;;;12.93;8.30;;;;;;;14.12;82.18;101612.06;7397876;19;19946;-66
2023/09/16 06:01:28;;;;;;;12.13;8.38;;;;;;;14.14;82.46;101603.78;7398554;19;19934;-66
2023/09/16 06:03:56;;;;;;;11.63;8.85;;;;;;;14.13;82.46;101616.47;7398984;19;19914;-66
2023/09/16 06:06:25;;;;;;;15.00;9.07;;;;;;;14.12;82.82;101606.66;7395352;19;20333;-66
2023/09/16 06:09:14;;;;;;;11.73;9.10;;;;;;;14.13;82.49;101608.34;7396580;19;20481;-67
2023/09/16 06:11:42;;;;;;;14.80;9.13;;;;;;;14.15;82.77;101619.00;7397664;19;19926;-67
2023/09/16 06:14:11;;;;;;;11.88;9.07;;;;;;;14.19;82.36;101614.91;7398299;19;19914;-66
2023/09/16 06:16:42;;;;;;;12.38;9.10;;;;;;;14.24;82.68;101604.38;7399129;19;19914;-66
2023/09/16 06:19:11;;;;;;;12.15;8.88;;;;;;;14.27;82.60;101610.25;7398115;19;20249;-66
2023/09/16 06:21:40;;;;;;;11.82;9.57;;;;;;;14.30;82.57;101612.59;7398976;19;19911;-66
2023/09/16 06:24:09;;;;;;;11.02;8.18;;;;;;;14.35;82.40;101612.06;7399031;19;19919;-66
2023/09/16 06:26:58;;;;;;;12.43;9.38;;;;;;;14.37;82.57;101613.56;7398170;19;20586;-66
2023/09/16 06:29:26;;;;;;;13.05;8.13;;;;;;;14.43;82.78;101615.56;7398357;19;19925;-66
2023/09/16 06:31:58;;;;;;;11.50;8.23;;;;;;;14.46;82.69;101611.63;7397534;19;19918;-66
2023/09/16 06:34:26;;;;;;;11.48;9.07;;;;;;;14.49;82.67;101612.13;7397574;19;19923;-66
2023/09/16 06:36:55;;;;;;;13.48;8.80;;;;;;;14.53;82.51;101607.16;7395131;19;19922;-66
2023/09/16 06:39:25;;;;;;;11.05;7.75;;;;;;;14.57;82.65;101611.19;7398299;19;19931;-68
2023/09/16 06:41:54;;;;;;;12.23;8.90;;;;;;;14.63;82.62;101615.00;7398040;19;19915;-66
2023/09/16 06:44:42;;;;;;;13.68;7.90;;;;;;;14.67;82.27;101605.50;7396787;19;20453;-66
2023/09/16 06:47:13;;;;;;;13.68;9.55;;;;;;;14.73;82.44;101616.44;7397745;19;19918;-66
2023/09/16 06:49:42;;;;;;;14.98;8.38;;;;;;;14.78;82.34;101615.88;7397824;19;19922;-66
2023/09/16 06:52:11;;;;;;;13.35;9.27;;;;;;;14.83;82.47;101616.19;7409536;19;19990;-66
2023/09/16 06:54:39;;;;;;;11.52;8.68;;;;;;;14.88;82.10;101613.75;7411871;19;19943;-66
2023/09/16 06:57:08;;;;;;;12.68;8.77;;;;;;;14.94;82.48;101618.41;7411261;19;19927;-66
2023/09/16 06:59:37;;;;;;;14.07;8.70;;;;;;;15.01;81.96;101619.34;7411937;19;19930;-66
2023/09/16 07:02:06;;;;;;;12.68;9.63;;;;;;;15.08;82.06;101617.56;7411269;19;19915;-67
2023/09/16 07:04:40;;;;;;;13.95;9.25;;;;;;;15.15;82.01;101617.63;7411600;19;19929;-66
2023/09/16 07:07:09;;;;;;;12.43;9.10;;;;;;;15.19;82.34;101621.66;7407856;19;20334;-66
2023/09/16 07:09:37;;;;;;;14.02;10.15;;;;;;;15.23;82.54;101612.13;7411303;19;19939;-66
2023/09/16 07:12:08;;;;;;;13.88;9.35;;;;;;;15.30;82.45;101626.63;7412185;19;19922;-66
2023/09/16 07:14:39;;;;;;;14.25;9.20;;;;;;;15.35;82.29;101622.31;7412346;19;20234;-66
2023/09/16 07:17:09;;;;;;;12.93;8.70;;;;;;;15.40;82.37;101622.56;7411316;19;20265;-66
2023/09/16 07:19:40;;;;;;;13.05;9.80;;;;;;;15.48;82.47;101621.63;7411197;19;19949;-66
2023/09/16 07:22:08;;;;;;;14.00;8.60;;;;;;;15.53;82.61;101619.22;7411338;19;19938;-66
2023/09/16 07:24:37;;;;;;;13.77;9.45;;;;;;;15.61;82.28;101624.53;7410451;19;20319;-66
2023/09/16 07:27:06;;;;;;;16.02;10.80;;;;;;;15.67;82.05;101628.34;7410623;19;19922;-66
2023/09/16 07:29:35;;;;;;;13.18;10.50;;;;;;;15.71;82.64;101622.34;7410953;19;19930;-66
2023/09/16 07:32:04;;;;;;;13.70;9.38;;;;;;;15.78;82.35;101617.00;7410413;19;19926;-66
2023/09/16 07:34:32;;;;;;;16.45;10.13;;;;;;;15.85;82.10;101617.88;7410030;19;19923;-66
2023/09/16 07:37:04;;;;;;;13.70;9.90;;;;;;;15.92;82.39;101621.50;7407478;19;19938;-66
2023/09/16 07:39:32;;;;;;;;;;;;;;;15.82;83.49;101629.16;7413381;19;19922;-66
2023/09/16 07:42:01;;;;;;;14.27;9.68;;;;;;;16.00;82.39;101626.84;7409371;19;20733;-66
2023/09/16 07:44:30;;;;;;;14.00;9.68;;;;;;;16.10;81.52;101619.19;7409328;19;19914;-67
2023/09/16 07:46:58;;;;;;;14.93;9.98;;;;;;;16.19;81.36;101623.44;7409998;19;19950;-66
2023/09/16 07:49:27;;;;;;;14.70;9.32;;;;;;;16.29;81.25;101626.69;7410384;19;20186;-66
2023/09/16 07:51:55;;;;;;;13.25;9.65;;;;;;;16.39;81.47;101625.50;7408849;19;20334;-66
2023/09/16 07:54:27;;;;;;;14.02;8.77;;;;;;;16.47;80.45;101628.09;7408177;19;19922;-67
2023/09/16 07:56:55;;;;;;;15.60;9.52;;;;;;;16.54;80.54;101627.09;7409777;19;19911;-66
2023/09/16 07:59:24;;;;;;;11.55;8.25;;;;;;;16.61;80.13;101625.28;7408228;19;19919;-66
2023/09/16 08:01:53;;;;;;;13.15;9.13;;;;;;;16.71;80.33;101630.38;7404834;19;19915;-66
2023/09/16 08:04:22;;;;;;;13.32;9.80;;;;;;;16.81;79.97;101635.47;7400720;19;20381;-66
2023/09/16 08:06:52;;;;;;;14.70;9.40;;;;;;;16.91;79.54;101642.25;7396397;19;19947;-66
2023/09/16 08:09:21;;;;;;;13.13;9.02;;;;;;;17.02;79.49;101635.41;7401321;19;19922;-66
2023/09/16 08:11:52;;;;;;;14.05;9.55;;;;;;;17.13;79.36;101637.53;7401612;19;19918;-67
2023/09/16 08:14:21;;;;;;;16.75;8.82;;;;;;;17.21;79.34;101634.69;7399880;19;19918;-66
2023/09/16 08:16:52;;;;;;;15.93;9.13;;;;;;;17.28;79.27;101642.88;7401162;19;20433;-67
2023/09/16 08:19:21;;;;;;;13.20;9.52;;;;;;;17.31;78.95;101642.47;7401796;19;20363;-69
2023/09/16 08:21:50;;;;;;;13.15;9.63;;;;;;;17.34;79.21;101642.06;7401599;19;19915;-67
2023/09/16 08:24:19;;;;;;;12.57;8.30;;;;;;;17.33;79.90;101651.28;7401494;19;19923;-66
2023/09/16 08:26:47;;;;;;;12.63;9.60;;;;;;;17.30;79.56;101647.06;7401605;19;19951;-66
2023/09/16 08:29:16;;;;;;;14.60;10.05;;;;;;;17.32;79.45;101649.59;7400675;19;19962;-66
2023/09/16 08:31:45;;;;;;;11.02;8.38;;;;;;;17.36;79.67;101650.88;7400934;19;19926;-66
2023/09/16 08:34:13;;;;;;;13.50;9.80;;;;;;;17.45;79.94;101647.78;7400439;19;19947;-66
2023/09/16 08:36:42;;;;;;;14.05;9.13;;;;;;;17.56;79.65;101649.09;7397904;19;19943;-67
2023/09/16 08:39:10;;;;;;;13.65;8.80;;;;;;;17.65;79.41;101647.88;7400752;19;19929;-66
2023/09/16 08:41:44;;;;;;;12.23;9.70;;;;;;;17.75;78.69;101642.88;7401416;19;19951;-66
2023/09/16 08:44:20;;;;;;;12.13;9.30;;;;;;;17.85;78.30;101642.50;7401081;19;19926;-66
2023/09/16 08:47:06;;;;;;;12.55;8.77;;;;;;;17.92;78.05;101643.34;7401061;19;20352;-66
2023/09/16 08:49:40;;;;;;;10.90;8.50;;;;;;;17.96;77.96;101631.81;7401058;19;20253;-66
2023/09/16 08:52:12;;;;;;;12.10;8.95;;;;;;;18.00;77.85;101648.59;7401586;19;19932;-68
2023/09/16 08:54:44;;;;;;;12.20;9.07;;;;;;;18.03;77.71;101649.03;7400095;19;20394;-66
2023/09/16 08:57:14;;;;;;;14.00;9.02;;;;;;;18.09;77.72;101650.94;7401315;19;19938;-66
2023/09/16 08:59:46;;;;;;;12.07;8.98;;;;;;;18.12;77.30;101653.22;7400671;19;20275;-66
2023/09/16 09:02:36;;;;;;;11.63;8.30;;;;;;;18.12;77.75;101653.22;7399402;19;19923;-66
2023/09/16 09:05:07;;;;;;;15.45;9.10;;;;;;;18.19;77.70;101653.25;7398754;19;20010;-67
2023/09/16 09:07:38;;;;;;;13.13;8.65;;;;;;;18.34;76.65;101659.34;7397839;19;20388;-66
2023/09/16 09:10:10;;;;;;;11.52;8.23;;;;;;;18.49;76.67;101653.69;7401720;19;20181;-66
2023/09/16 09:12:41;;;;;;;13.60;8.27;;;;;;;18.66;76.45;101652.25;7401122;19;20578;-67
2023/09/16 09:15:14;;;;;;;12.23;8.32;;;;;;;18.80;76.03;101653.94;7399703;19;20278;-66
2023/09/16 09:17:46;;;;;;;12.55;8.60;;;;;;;18.91;75.69;101652.41;7399912;19;19919;-66
2023/09/16 09:20:17;;;;;;;11.95;8.75;;;;;;;19.09;74.84;101649.88;7399483;19;19918;-66
2023/09/16 09:22:48;;;;;;;13.55;8.38;;;;;;;19.18;73.95;101647.75;7402769;19;19915;-66
2023/09/16 09:25:17;;;;;;;12.43;8.52;;;;;;;19.25;73.54;101645.81;7399643;19;19922;-65
2023/09/16 09:27:45;;;;;;;11.88;8.73;;;;;;;19.26;74.18;101640.16;7400256;19;19923;-66
2023/09/16 09:30:19;;;;;;;11.90;9.45;;;;;;;19.39;74.01;101633.81;7399333;19;19922;-66
2023/09/16 09:32:48;;;;;;;11.48;8.30;;;;;;;19.47;73.83;101639.06;7399720;19;19942;-66
2023/09/16 09:35:17;;;;;;;12.00;8.52;;;;;;;19.56;73.96;101637.75;7399874;19;19935;-65
2023/09/16 09:38:07;;;;;;;11.23;8.45;;;;;;;19.68;73.09;101626.97;7394436;19;20300;-66
2023/09/16 09:40:36;;;;;;;13.00;8.70;;;;;;;19.78;72.81;101630.91;7399975;19;20264;-66
2023/09/16 09:43:06;;;;;;;11.07;8.23;;;;;;;19.87;72.56;101629.59;7396731;19;20284;-67
2023/09/16 09:45:40;;;;;;;11.18;8.38;;;;;;;19.98;72.16;101636.25;7399020;19;19953;-66
2023/09/16 09:48:09;;;;;;;13.38;7.53;;;;;;;20.09;71.60;101637.44;7399731;19;19930;-66
2023/09/16 09:50:38;;;;;;;9.65;6.40;;;;;;;20.20;69.86;101636.72;7399826;19;20411;-66
2023/09/16 09:53:07;;;;;;;8.88;6.38;;;;;;;20.27;68.67;101638.38;7398708;19;19923;-66
2023/09/16 09:55:36;;;;;;;7.20;5.78;;;;;;;20.34;67.75;101639.19;7399363;19;19922;-66
2023/09/16 09:58:05;;;;;;;9.75;5.68;;;;;;;20.43;67.02;101631.53;7398999;19;19918;-66
2023/09/16 10:00:33;;;;;;;10.10;7.35;;;;;;;20.51;68.47;101634.00;7399629;19;19922;-66
2023/09/16 10:03:06;;;;;;;10.05;6.80;;;;;;;20.54;67.82;101635.44;7398981;19;19930;-66
2023/09/16 10:05:37;;;;;;;9.73;7.53;;;;;;;20.54;68.39;101643.63;7394635;19;20030;-66
2023/09/16 10:08:07;;;;;;;9.98;6.63;;;;;;;20.57;67.67;101637.75;7399179;19;19953;-66
2023/09/16 10:10:37;;;;;;;9.88;6.53;;;;;;;20.70;67.34;101637.63;7399238;19;19961;-66
2023/09/16 10:13:06;;;;;;;12.40;8.13;;;;;;;20.77;67.23;101631.00;7398987;19;19947;-66
2023/09/16 10:15:36;;;;;;;10.00;6.55;;;;;;;20.83;67.81;101627.38;7399633;19;19919;-66
2023/09/16 10:18:09;;;;;;;7.35;6.10;;;;;;;20.99;67.65;101631.41;7398535;19;20030;-66
2023/09/16 10:20:40;;;;;;;8.32;6.22;;;;;;;21.22;66.79;101622.56;7398701;19;19926;-66
2023/09/16 10:23:09;;;;;;;9.38;6.75;;;;;;;21.43;66.62;101619.34;7398241;19;19926;-66
2023/09/16 10:25:38;;;;;;;9.18;6.30;;;;;;;21.64;65.63;101628.97;7397308;19;19918;-66
2023/09/16 10:28:08;;;;;;;8.48;6.15;;;;;;;21.82;64.74;101636.34;7397678;19;20323;-66
2023/09/16 10:30:38;;;;;;;7.63;5.30;;;;;;;21.98;64.63;101639.28;7398264;19;20276;-66
2023/09/16 10:33:29;;;;;;;8.13;6.18;;;;;;;22.16;64.51;101630.16;7396966;19;19915;-66
2023/09/16 10:35:58;;;;;;;6.68;4.93;;;;;;;22.28;64.23;101631.00;7394917;19;19930;-66
2023/09/16 10:38:28;;;;;;;9.77;5.35;;;;;;;22.33;62.73;101635.78;7397825;19;19954;-66
2023/09/16 10:40:57;;;;;;;6.43;4.72;;;;;;;22.38;62.24;101631.28;7397601;19;19918;-66
2023/09/16 10:43:25;;;;;;;9.52;5.30;;;;;;;22.36;61.40;101627.91;7396677;19;19929;-66
2023/09/16 10:45:55;;;;;;;6.40;4.18;;;;;;;22.34;60.86;101623.75;7398158;19;19923;-66
2023/09/16 10:48:23;;;;;;;8.77;5.40;;;;;;;22.31;61.06;101622.28;7398476;19;19930;-66
2023/09/16 10:50:58;;;;;;;6.25;4.47;;;;;;;22.39;61.70;101613.69;7397172;19;19926;-66
2023/09/16 10:53:36;;;;;;;6.70;4.53;;;;;;;22.56;60.48;101619.34;7396997;19;19926;-66
2023/09/16 10:56:13;;;;;;;7.90;4.90;;;;;;;22.69;61.11;101610.91;7397265;19;20281;-65
2023/09/16 10:59:10;;;;;;;8.70;5.18;;;;;;;22.81;60.57;101608.16;7396006;19;19930;-66
2023/09/16 11:01:47;;;;;;;7.22;4.25;;;;;;;22.93;60.28;101598.81;7397308;19;19922;-66
2023/09/16 11:04:18;;;;;;;7.97;5.25;;;;;;;23.06;60.02;101600.47;7397989;19;19919;-66
2023/09/16 11:06:50;;;;;;;7.32;5.38;;;;;;;23.10;59.84;101607.16;7391620;19;19943;-66
2023/09/16 11:09:20;;;;;;;5.85;4.38;;;;;;;23.19;59.36;101608.47;7397613;19;19981;-66
2023/09/16 11:11:50;;;;;;;6.18;4.10;;;;;;;23.29;58.21;101596.84;7395135;19;19943;-66
2023/09/16 11:14:19;;;;;;;7.60;4.10;;;;;;;23.33;57.81;101595.28;7397418;19;19922;-66
2023/09/16 11:16:50;;;;;;;8.75;5.32;;;;;;;23.46;58.36;101590.38;7395990;19;19929;-66
2023/09/16 11:19:23;;;;;;;6.38;4.38;;;;;;;23.62;56.63;101594.25;7396193;19;19943;-67
2023/09/16 11:21:55;;;;;;;6.13;3.78;;;;;;;23.79;57.54;101588.78;7396066;19;20811;-66
2023/09/16 11:24:24;;;;;;;6.10;3.72;;;;;;;23.87;54.84;101578.19;7395046;19;20332;-66
2023/09/16 11:26:55;;;;;;;8.50;3.85;;;;;;;23.98;55.65;101576.47;7396278;19;19918;-66
2023/09/16 11:29:25;;;;;;;6.45;4.07;;;;;;;24.13;56.09;101573.13;7395447;19;19990;-66
2023/09/16 11:31:58;;;;;;;5.90;4.10;;;;;;;24.24;54.51;101575.03;7396006;19;19918;-66
2023/09/16 11:34:28;;;;;;;6.30;3.63;;;;;;;24.33;53.46;101571.56;7395227;19;19961;-67
2023/09/16 11:37:02;;;;;;;5.70;3.95;;;;;;;24.42;53.36;101567.31;7393012;19;19923;-66
2023/09/16 11:39:44;;;;;;;5.07;4.10;;;;;;;24.48;52.08;101567.41;7400970;19;20015;-67